Concepcion de la Sierra, Argentina
Current Conditions -  °F | °C
As of 11:00 AM on Thursday 30 Oct 2014 (Local Time) from SARP Reporting Station
Overcast Overcast  
Wind Chill: 68°   Ceiling: 6000
Heat Index: 68°   Visibility: 6mi
Dew Point: 63°   Wind: 15mph
Humidity: 83%   Direction: 140°SE
Pressure: 29.88"   Gusts: NA
Location:  27.98°S, 55.52°W
Report Text: SARP 301400Z 14013KT 9999 FEW015 SCT045TCUOVC060 20/17 Q1012 RETSRA
Loading
Personal Weather Stations






























Interactive Weather Map
Tropical Storm Tracking
New forecast layout! Learn more

10-Day Weather Forecast

Advertisements
Track Severe Weather on mobile